Caseyville, IL (62232)

06:43 AM CST del 10 Dicembre 2016 (GMT -0600)
By Illini School | | Change Station

Alt. 542 ft 38.62 °N, 90.02 °W | Updated 25 seconds ago

Coperto
Coperto
24.3 °F
Sembra 24 °F
N
0.0
Vento Variabile Vento da SSE

Oggi
Massima -- | Minima -- °F
--% Possibilità di precip.
Ieri
Massima -- | Minima -- °F
Precip. -- in
Pressione 30.60 in
Visibilità 10.0 miglia
Nuvole Coperto 7000 ft
Raffreddamento del vento 24 °F
Punto di rugiada 19 °F
Umidità 79%
Piovosità 0.00 in
Spessore del manto nevoso Non disponibile.
7:07 AM 4:38 PM
Gobba a ponente, 83% visible
METAR KCPS 101153Z AUTO 00000KT 10SM OVC070 M03/M08 A3058 RMK AO2 SLP361 T10331083 11033 21050 56001 $
Pressione 30.60 in
Visibilità 10.0 miglia
Nuvole Coperto 7000 ft
Raffreddamento del vento 24 °F
Punto di rugiada 19 °F
Umidità 79%
Piovosità 0.00 in
Spessore del manto nevoso Non disponibile.
7:07 AM 4:38 PM
Gobba a ponente, 83% visible
METAR KCPS 101153Z AUTO 00000KT 10SM OVC070 M03/M08 A3058 RMK AO2 SLP361 T10331083 11033 21050 56001 $

10-Day Weather Forecast

Almanac

Astronomia

Dec. 10, 2016 Alba Tramonto
Ora attuale
Crepuscolo civile
Crepuscolo nautico
Crepuscolo astronomico
Luna
Estensione della luce visibile
Lunghezza del giorno
Tomorrow will be .
, % of the Moon is Illuminated

Gli estremi di oggi

State Highs State Lows

Community

WunderPhotos

Upload Photos

1,956,540 foto caricate!

WunderBlog® & News

Nearby

Qualità dell'aria

  Qualità dell'aria Indice AQ Inquinante
Not available.

Profondità neve

Stazione Profondità Altitudine

Attività sismica

Città  Distanza Mag. Data & Ora
Minimo Magnitudo Mostrato è 2.5.

Temperature delle acque costiere

Località Temperatura

Stations

Stazioni meteo nelle vicinanze

Ubicazione della stazione Temp. Raffreddamento del vento Punto di rugiada Umidità Vento Precip. Alt. Aggiornato Tipo
                   

Watches & Warnings

There are currently no watches in effect.